createdAt,value
2023-04-11T00:01:00.623Z,23.70
2023-04-11T00:03:28.966Z,21.10
2023-04-11T00:05:56.881Z,21.40
2023-04-11T00:08:24.690Z,18.70
2023-04-11T00:10:52.313Z,19.10
2023-04-11T00:13:19.983Z,17.80
2023-04-11T00:15:47.971Z,15.30
2023-04-11T00:18:15.573Z,17.40
2023-04-11T00:20:43.158Z,14.70
2023-04-11T00:23:11.145Z,17.70
2023-04-11T00:25:39.112Z,17.50
2023-04-11T00:28:06.765Z,15.50
2023-04-11T00:30:34.488Z,15.90
2023-04-11T00:33:02.407Z,15.20
2023-04-11T00:35:30.225Z,18.60
2023-04-11T00:37:58.711Z,16.20
2023-04-11T00:40:26.483Z,16.20
2023-04-11T00:42:56.771Z,13.70
2023-04-11T00:45:24.932Z,15.90
2023-04-11T00:47:53.730Z,17.50
2023-04-11T00:50:22.312Z,17.00
2023-04-11T00:52:51.722Z,18.20
2023-04-11T00:55:19.438Z,19.00
2023-04-11T00:57:47.645Z,26.30
2023-04-11T01:00:15.873Z,21.40
2023-04-11T01:02:43.785Z,26.60
2023-04-11T01:05:15.318Z,23.10
2023-04-11T01:07:48.607Z,26.50
2023-04-11T01:10:17.252Z,26.80
2023-04-11T01:12:46.784Z,31.20
2023-04-11T01:15:15.012Z,30.90
2023-04-11T01:17:43.372Z,36.00
2023-04-11T01:20:13.081Z,43.30
2023-04-11T01:22:42.755Z,38.10
2023-04-11T01:25:11.155Z,44.50
2023-04-11T01:27:38.904Z,40.50
2023-04-11T01:30:08.708Z,45.60
2023-04-11T01:32:36.391Z,37.20
2023-04-11T01:35:05.984Z,41.80
2023-04-11T01:37:34.762Z,42.90
2023-04-11T01:40:03.041Z,36.20
2023-04-11T01:42:32.837Z,49.00
2023-04-11T01:45:02.960Z,38.80
2023-04-11T01:47:30.751Z,48.90
2023-04-11T01:49:58.451Z,46.50
2023-04-11T01:52:26.476Z,47.90
2023-04-11T01:54:54.131Z,45.50
2023-04-11T01:57:21.790Z,44.20
2023-04-11T01:59:49.603Z,42.30
2023-04-11T02:02:17.545Z,40.50
2023-04-11T02:04:45.669Z,36.40
2023-04-11T02:07:13.330Z,39.80
2023-04-11T02:09:41.032Z,37.60
2023-04-11T02:12:08.739Z,41.90
2023-04-11T02:14:45.671Z,40.30
2023-04-11T02:17:14.140Z,45.10
2023-04-11T02:19:41.783Z,44.50
2023-04-11T02:22:09.451Z,41.90
2023-04-11T02:24:38.227Z,42.00
2023-04-11T02:27:06.579Z,42.80
2023-04-11T02:29:34.753Z,42.00
2023-04-11T02:32:02.607Z,38.10
2023-04-11T02:34:30.899Z,44.90
2023-04-11T02:36:58.588Z,45.70
2023-04-11T02:39:26.425Z,35.00
2023-04-11T02:41:53.983Z,40.80
2023-04-11T02:44:22.577Z,41.10
2023-04-11T02:46:50.307Z,39.20
2023-04-11T02:49:18.010Z,43.50
2023-04-11T02:51:45.665Z,43.90
2023-04-11T02:54:13.316Z,42.20
2023-04-11T02:56:41.248Z,44.20
2023-04-11T02:59:08.936Z,51.50
2023-04-11T03:01:38.254Z,43.50
2023-04-11T03:04:07.401Z,48.10
2023-04-11T03:06:36.130Z,45.00
2023-04-11T03:09:04.148Z,46.70
2023-04-11T03:11:31.870Z,39.20
2023-04-11T03:13:59.435Z,42.10
2023-04-11T03:16:28.194Z,30.20
2023-04-11T03:18:56.111Z,35.90
2023-04-11T03:21:24.487Z,36.10
2023-04-11T03:23:52.271Z,45.30
2023-04-11T03:26:20.342Z,54.60
2023-04-11T03:28:47.916Z,43.80
2023-04-11T03:31:15.655Z,41.60
2023-04-11T03:33:44.970Z,40.50
2023-04-11T03:36:12.998Z,39.20
2023-04-11T03:38:40.679Z,33.90
2023-04-11T03:41:08.406Z,31.20
2023-04-11T03:43:36.050Z,47.30
2023-04-11T03:46:03.875Z,48.80
2023-04-11T03:48:31.598Z,47.90
2023-04-11T03:50:59.226Z,46.60
2023-04-11T03:53:26.881Z,38.00
2023-04-11T03:55:55.527Z,47.00
2023-04-11T03:58:23.258Z,44.30
2023-04-11T04:00:50.951Z,45.10
2023-04-11T04:03:18.735Z,44.40
2023-04-11T04:05:46.517Z,45.80
2023-04-11T04:08:14.128Z,52.90
2023-04-11T04:10:41.728Z,75.60
2023-04-11T04:13:09.403Z,104.10
2023-04-11T04:15:37.077Z,41.60
2023-04-11T04:18:05.408Z,101.40
2023-04-11T04:20:33.262Z,63.90
2023-04-11T04:23:00.889Z,57.80
2023-04-11T04:25:28.751Z,62.10
2023-04-11T04:27:58.315Z,50.60
2023-04-11T04:30:28.798Z,58.80
2023-04-11T04:32:59.044Z,48.50
2023-04-11T04:35:27.165Z,41.90
2023-04-11T04:37:54.784Z,48.50
2023-04-11T04:40:22.529Z,44.50
2023-04-11T04:42:58.274Z,42.90
2023-04-11T04:45:26.454Z,48.90
2023-04-11T04:47:54.344Z,44.20
2023-04-11T04:50:22.202Z,37.50
2023-04-11T04:52:49.907Z,40.20
2023-04-11T04:55:17.674Z,57.00
2023-04-11T04:57:45.404Z,65.40
2023-04-11T05:00:13.779Z,66.00
2023-04-11T05:02:41.534Z,57.40
2023-04-11T05:05:09.629Z,33.00
2023-04-11T05:07:37.317Z,46.00
2023-04-11T05:10:05.623Z,44.80
2023-04-11T05:12:33.601Z,45.30
2023-04-11T05:15:01.240Z,59.30
2023-04-11T05:17:29.528Z,46.10
2023-04-11T05:19:57.168Z,51.30
2023-04-11T05:22:24.859Z,34.80
2023-04-11T05:24:52.495Z,48.10
2023-04-11T05:27:20.645Z,50.50
2023-04-11T05:29:48.258Z,49.20
2023-04-11T05:32:15.908Z,43.70
2023-04-11T05:34:58.980Z,53.50
2023-04-11T05:37:27.185Z,39.30
2023-04-11T05:39:56.331Z,37.30
2023-04-11T05:42:24.030Z,54.70
2023-04-11T05:44:51.645Z,55.40
2023-04-11T05:47:19.322Z,23.20
2023-04-11T05:49:48.736Z,47.20
2023-04-11T05:52:16.533Z,35.60
2023-04-11T05:54:44.204Z,56.30
2023-04-11T05:57:11.829Z,46.50
2023-04-11T05:59:39.487Z,47.90
2023-04-11T06:02:07.185Z,59.50
2023-04-11T06:04:35.266Z,53.90
2023-04-11T06:07:04.347Z,54.80
2023-04-11T06:09:33.897Z,49.20
2023-04-11T06:12:03.737Z,37.10
2023-04-11T06:14:32.223Z,41.40
2023-04-11T06:17:00.124Z,43.00
2023-04-11T06:19:27.770Z,43.20
2023-04-11T06:21:55.382Z,37.30
2023-04-11T06:24:36.902Z,47.00
2023-04-11T06:27:04.917Z,35.30
2023-04-11T06:29:32.632Z,49.00
2023-04-11T06:32:00.421Z,39.40
2023-04-11T06:34:28.119Z,25.60
2023-04-11T06:36:56.436Z,29.00
2023-04-11T06:39:24.183Z,52.70
2023-04-11T06:41:51.938Z,44.10
2023-04-11T06:44:19.809Z,56.60
2023-04-11T06:46:47.558Z,39.70
2023-04-11T06:49:15.413Z,54.70
2023-04-11T06:51:43.112Z,27.10
2023-04-11T06:54:10.843Z,40.10
2023-04-11T06:56:38.727Z,35.70
2023-04-11T06:59:06.638Z,39.40
2023-04-11T07:01:37.657Z,39.00
2023-04-11T07:04:07.100Z,31.50
2023-04-11T07:06:38.528Z,32.60
2023-04-11T07:09:06.719Z,20.80
2023-04-11T07:11:34.481Z,23.10
2023-04-11T07:14:02.883Z,25.20
2023-04-11T07:16:30.720Z,34.60
2023-04-11T07:18:59.965Z,32.50
2023-04-11T07:21:28.352Z,36.10
2023-04-11T07:23:56.856Z,33.50
2023-04-11T07:26:27.335Z,26.10
2023-04-11T07:28:55.316Z,30.40
2023-04-11T07:31:23.131Z,28.00
2023-04-11T07:33:51.259Z,30.50
2023-04-11T07:36:18.979Z,21.00
2023-04-11T07:38:46.873Z,26.00
2023-04-11T07:41:16.251Z,34.10
2023-04-11T07:43:44.028Z,33.80
2023-04-11T07:46:12.460Z,28.50
2023-04-11T07:48:41.428Z,31.20
2023-04-11T07:51:09.369Z,25.60
2023-04-11T07:53:37.287Z,23.40
2023-04-11T07:56:05.356Z,25.90
2023-04-11T07:58:33.087Z,25.10
2023-04-11T08:01:02.610Z,24.00
2023-04-11T08:03:30.473Z,30.60
2023-04-11T08:05:58.398Z,22.60
2023-04-11T08:08:26.464Z,19.20
2023-04-11T08:10:54.084Z,25.60
2023-04-11T08:13:21.750Z,32.70
2023-04-11T08:15:49.422Z,25.60
2023-04-11T08:18:21.351Z,18.40
2023-04-11T08:20:49.116Z,29.90
2023-04-11T08:23:19.383Z,21.50
2023-04-11T08:25:47.196Z,20.90
2023-04-11T08:28:15.309Z,18.90
2023-04-11T08:30:43.040Z,21.40
2023-04-11T08:33:10.686Z,25.60
2023-04-11T08:35:42.851Z,29.60
2023-04-11T08:38:10.846Z,24.60
2023-04-11T08:40:38.412Z,17.40
2023-04-11T08:43:12.099Z,18.60
2023-04-11T08:45:40.597Z,20.10
2023-04-11T08:48:12.452Z,16.50
2023-04-11T08:50:42.414Z,18.50
2023-04-11T08:53:11.751Z,20.90
2023-04-11T08:55:49.006Z,14.20
2023-04-11T08:58:17.861Z,19.50
2023-04-11T09:00:46.077Z,18.10
2023-04-11T09:03:16.886Z,17.90
2023-04-11T09:05:46.806Z,17.00
2023-04-11T09:08:16.870Z,16.90
2023-04-11T09:10:46.223Z,18.70
2023-04-11T09:13:27.560Z,15.80
2023-04-11T09:16:14.651Z,12.70
2023-04-11T09:18:46.686Z,15.70
2023-04-11T09:21:17.019Z,10.90
2023-04-11T09:23:44.734Z,12.00
2023-04-11T09:26:13.167Z,15.20
2023-04-11T09:28:52.765Z,14.10
2023-04-11T09:31:42.259Z,10.90
2023-04-11T09:34:12.713Z,10.20
2023-04-11T09:36:40.647Z,10.10
2023-04-11T09:39:19.137Z,8.90
2023-04-11T09:41:46.958Z,12.80
2023-04-11T09:44:14.596Z,9.80
2023-04-11T09:47:01.426Z,8.60
2023-04-11T09:49:29.986Z,17.40
2023-04-11T09:51:57.876Z,12.40
2023-04-11T09:54:28.192Z,11.50
2023-04-11T09:56:58.434Z,11.10
2023-04-11T09:59:27.014Z,11.50
2023-04-11T10:01:55.773Z,11.90
2023-04-11T10:04:23.554Z,12.40
2023-04-11T10:07:18.234Z,12.20
2023-04-11T10:09:47.917Z,9.90
2023-04-11T10:12:31.969Z,11.50
2023-04-11T10:15:10.117Z,9.50
2023-04-11T10:17:38.098Z,12.00
2023-04-11T10:20:38.027Z,11.40
2023-04-11T10:23:07.480Z,10.50
2023-04-11T10:26:00.363Z,10.60
2023-04-11T10:28:33.254Z,11.50
2023-04-11T10:31:10.255Z,12.30
2023-04-11T10:33:38.704Z,12.10
2023-04-11T10:36:12.439Z,11.60
2023-04-11T10:38:40.886Z,10.70
2023-04-11T10:41:27.274Z,12.30
2023-04-11T10:44:20.616Z,10.80
2023-04-11T10:46:55.148Z,12.90
2023-04-11T10:49:40.499Z,12.60
2023-04-11T10:52:24.388Z,13.00
2023-04-11T10:54:54.648Z,10.10
2023-04-11T10:57:23.180Z,12.60
2023-04-11T10:59:51.044Z,13.80
2023-04-11T11:02:19.997Z,13.70
2023-04-11T11:04:49.299Z,11.00
2023-04-11T11:07:17.498Z,10.90
2023-04-11T11:09:52.491Z,12.00
2023-04-11T11:12:20.315Z,9.00
2023-04-11T11:14:48.055Z,13.60
2023-04-11T11:17:17.758Z,13.10
2023-04-11T11:19:47.647Z,12.00
2023-04-11T11:22:17.401Z,10.20
2023-04-11T11:24:45.258Z,10.70
2023-04-11T11:27:25.059Z,13.40
2023-04-11T11:29:53.421Z,14.70
2023-04-11T11:32:30.639Z,9.70
2023-04-11T11:34:58.963Z,12.70
2023-04-11T11:37:27.035Z,9.60
2023-04-11T11:39:54.886Z,13.60
2023-04-11T11:42:22.714Z,9.40
2023-04-11T11:44:50.373Z,13.10
2023-04-11T11:47:18.174Z,17.00
2023-04-11T11:49:56.035Z,12.80
2023-04-11T11:52:43.354Z,11.60
2023-04-11T11:55:20.243Z,14.00
2023-04-11T11:57:50.211Z,9.30
2023-04-11T12:00:26.345Z,11.80
2023-04-11T12:02:57.192Z,12.50
2023-04-11T12:05:33.166Z,10.10
2023-04-11T12:08:07.514Z,12.50
2023-04-11T12:10:42.872Z,11.20
2023-04-11T12:13:25.612Z,10.70
2023-04-11T12:16:04.097Z,11.20
2023-04-11T12:18:31.777Z,11.30
2023-04-11T12:20:59.885Z,12.50
2023-04-11T12:23:27.500Z,11.80
2023-04-11T12:25:55.277Z,12.00
2023-04-11T12:28:22.934Z,11.90
2023-04-11T12:30:50.855Z,12.40
2023-04-11T12:33:18.546Z,13.80
2023-04-11T12:35:46.742Z,14.10
2023-04-11T12:38:17.441Z,14.60
2023-04-11T12:40:46.514Z,14.40
2023-04-11T12:43:14.267Z,14.00
2023-04-11T12:45:41.920Z,14.30
2023-04-11T12:48:09.709Z,12.20
2023-04-11T12:50:37.913Z,15.80
2023-04-11T12:53:05.641Z,13.80
2023-04-11T12:55:36.921Z,14.20
2023-04-11T12:58:04.632Z,13.90
2023-04-11T13:00:32.209Z,14.30
2023-04-11T13:03:00.135Z,15.00
2023-04-11T13:05:28.085Z,14.60
2023-04-11T13:07:55.794Z,15.70
2023-04-11T13:10:23.676Z,14.60
2023-04-11T13:12:53.269Z,18.70
2023-04-11T13:15:21.396Z,15.90
2023-04-11T13:17:50.679Z,15.10
2023-04-11T13:20:18.318Z,11.90
2023-04-11T13:22:46.183Z,15.50
2023-04-11T13:25:13.820Z,15.30
2023-04-11T13:27:42.327Z,15.30
2023-04-11T13:30:11.420Z,17.10
2023-04-11T13:32:39.335Z,18.90
2023-04-11T13:35:08.281Z,16.00
2023-04-11T13:37:36.186Z,17.50
2023-04-11T13:40:06.838Z,20.20
2023-04-11T13:42:35.188Z,18.20
2023-04-11T13:45:02.911Z,16.40
2023-04-11T13:47:30.694Z,17.30
2023-04-11T13:49:58.429Z,16.00
2023-04-11T13:52:26.114Z,17.00
2023-04-11T13:54:53.845Z,16.30
2023-04-11T13:57:22.362Z,18.00
2023-04-11T13:59:49.966Z,14.10
2023-04-11T14:02:17.628Z,13.50
2023-04-11T14:04:45.387Z,15.70
2023-04-11T14:07:13.519Z,15.50
2023-04-11T14:09:42.081Z,15.40
2023-04-11T14:12:09.684Z,20.40
2023-04-11T14:14:37.331Z,14.60
2023-04-11T14:17:05.082Z,15.00
2023-04-11T14:19:35.500Z,14.40
2023-04-11T14:22:03.347Z,15.40
2023-04-11T14:24:31.655Z,15.40
2023-04-11T14:26:59.301Z,17.20
2023-04-11T14:29:27.215Z,17.60
2023-04-11T14:31:56.380Z,19.80
2023-04-11T14:34:24.054Z,18.20
2023-04-11T14:36:51.961Z,19.10
2023-04-11T14:39:20.495Z,17.40
2023-04-11T14:41:48.577Z,17.20
2023-04-11T14:44:16.761Z,16.60
2023-04-11T14:46:44.508Z,17.30
2023-04-11T14:49:12.550Z,18.80
2023-04-11T14:51:40.431Z,24.70
2023-04-11T14:54:08.106Z,25.40
2023-04-11T14:56:36.441Z,29.50
2023-04-11T14:59:04.311Z,28.60
2023-04-11T15:01:31.956Z,31.00
2023-04-11T15:04:00.121Z,24.40
2023-04-11T15:06:28.121Z,27.40
2023-04-11T15:08:56.051Z,27.40
2023-04-11T15:11:23.947Z,28.20
2023-04-11T15:13:53.018Z,23.90
2023-04-11T15:16:23.411Z,29.50
2023-04-11T15:18:51.128Z,22.50
2023-04-11T15:21:18.718Z,28.60
2023-04-11T15:23:47.198Z,26.10
2023-04-11T15:26:14.895Z,28.00
2023-04-11T15:28:43.636Z,20.40
2023-04-11T15:31:12.950Z,20.10
2023-04-11T15:33:41.081Z,19.80
2023-04-11T15:36:09.278Z,16.30
2023-04-11T15:38:37.030Z,18.50
2023-04-11T15:41:05.009Z,22.10
2023-04-11T15:43:33.081Z,14.70
2023-04-11T15:46:03.681Z,36.50
2023-04-11T15:48:31.350Z,15.90
2023-04-11T15:50:59.088Z,17.90
2023-04-11T15:53:26.788Z,17.40
2023-04-11T15:55:54.525Z,19.00
2023-04-11T15:58:22.107Z,17.30
2023-04-11T16:00:51.406Z,21.70
2023-04-11T16:03:19.332Z,16.30
2023-04-11T16:05:50.871Z,25.10
2023-04-11T16:08:18.556Z,16.40
2023-04-11T16:10:46.276Z,11.80
2023-04-11T16:13:13.987Z,12.60
2023-04-11T16:15:41.626Z,8.60
2023-04-11T16:18:09.375Z,9.50
2023-04-11T16:20:37.176Z,10.10
2023-04-11T16:23:04.923Z,7.90
2023-04-11T16:25:32.707Z,8.40
2023-04-11T16:28:00.513Z,14.70
2023-04-11T16:30:28.130Z,13.80
2023-04-11T16:32:55.867Z,14.20
2023-04-11T16:35:23.760Z,19.90
2023-04-11T16:37:51.917Z,11.10
2023-04-11T16:40:19.817Z,13.00
2023-04-11T16:42:47.448Z,16.00
2023-04-11T16:45:15.139Z,15.90
2023-04-11T16:47:42.921Z,16.30
2023-04-11T16:50:10.811Z,16.90
2023-04-11T16:52:38.686Z,14.90
2023-04-11T16:55:06.553Z,15.20
2023-04-11T16:57:34.652Z,21.90
2023-04-11T17:00:17.069Z,16.80
2023-04-11T17:02:45.627Z,18.20
2023-04-11T17:05:13.764Z,17.70
2023-04-11T17:07:41.765Z,15.10
2023-04-11T17:10:10.204Z,19.00
2023-04-11T17:12:38.467Z,19.40
2023-04-11T17:15:08.568Z,23.80
2023-04-11T17:17:36.858Z,27.80
2023-04-11T17:20:09.476Z,18.70
2023-04-11T17:22:39.264Z,18.00
2023-04-11T17:25:07.751Z,14.60
2023-04-11T17:27:36.288Z,17.10
2023-04-11T17:30:05.686Z,21.90
2023-04-11T17:32:34.732Z,27.60
2023-04-11T17:35:06.592Z,15.30
2023-04-11T17:37:36.000Z,14.60
2023-04-11T17:40:10.988Z,12.90
2023-04-11T17:42:41.073Z,16.80
2023-04-11T17:47:44.283Z,18.10
2023-04-11T17:50:14.102Z,17.70
2023-04-11T17:52:45.001Z,18.90
2023-04-11T17:55:16.552Z,22.40
2023-04-11T17:57:49.062Z,20.60
2023-04-11T18:00:24.158Z,21.30
2023-04-11T18:02:57.751Z,19.30
2023-04-11T18:05:29.462Z,14.60
2023-04-11T18:07:59.867Z,14.20
2023-04-11T18:10:28.223Z,18.70
2023-04-11T18:12:58.560Z,23.10
2023-04-11T18:15:27.892Z,19.30
2023-04-11T18:17:56.050Z,21.40
2023-04-11T18:20:23.797Z,22.00
2023-04-11T18:22:56.357Z,19.70
2023-04-11T18:25:24.685Z,15.90
2023-04-11T18:27:52.538Z,17.20
2023-04-11T18:30:20.631Z,17.70
2023-04-11T18:32:50.980Z,19.90
2023-04-11T18:35:20.128Z,25.70
2023-04-11T18:37:47.875Z,26.70
2023-04-11T18:40:16.842Z,25.00
2023-04-11T18:42:51.312Z,21.70
2023-04-11T18:45:23.069Z,24.80
2023-04-11T18:47:51.225Z,22.60
2023-04-11T18:50:20.004Z,18.10
2023-04-11T18:52:51.534Z,17.10
2023-04-11T18:55:23.037Z,16.80
2023-04-11T18:57:53.411Z,15.80
2023-04-11T19:00:23.930Z,17.80
2023-04-11T19:02:52.311Z,19.20
2023-04-11T19:05:20.678Z,16.70
2023-04-11T19:07:48.945Z,20.50
2023-04-11T19:10:16.645Z,18.80
2023-04-11T19:12:44.567Z,17.40
2023-04-11T19:15:12.677Z,20.10
2023-04-11T19:17:40.561Z,23.60
2023-04-11T19:20:12.974Z,21.40
2023-04-11T19:22:41.860Z,21.70
2023-04-11T19:25:11.980Z,20.30
2023-04-11T19:27:42.022Z,21.00
2023-04-11T19:30:13.348Z,18.20
2023-04-11T19:32:43.904Z,18.80
2023-04-11T19:35:12.504Z,18.10
2023-04-11T19:37:40.909Z,17.30
2023-04-11T19:40:13.618Z,17.20
2023-04-11T19:42:43.133Z,16.80
2023-04-11T19:45:12.078Z,17.40
2023-04-11T19:47:41.314Z,20.30
2023-04-11T19:50:14.369Z,16.30
2023-04-11T19:52:43.298Z,19.40
2023-04-11T19:55:12.605Z,23.00
2023-04-11T19:57:43.311Z,27.00
2023-04-11T20:00:16.020Z,29.80
2023-04-11T20:02:46.605Z,29.00
2023-04-11T20:05:17.248Z,16.70
2023-04-11T20:07:46.349Z,18.10
2023-04-11T20:10:17.165Z,26.80
2023-04-11T20:12:45.235Z,23.90
2023-04-11T20:15:13.183Z,23.00
2023-04-11T20:17:41.790Z,18.80
2023-04-11T20:20:12.544Z,19.40
2023-04-11T20:22:40.800Z,21.60
2023-04-11T20:25:11.699Z,20.20
2023-04-11T20:27:42.646Z,22.90
2023-04-11T20:30:10.877Z,16.50
2023-04-11T20:32:40.491Z,19.90
2023-04-11T20:35:09.949Z,15.00
2023-04-11T20:37:40.176Z,15.60
2023-04-11T20:40:10.104Z,22.00
2023-04-11T20:42:40.164Z,17.30
2023-04-11T20:45:17.276Z,20.00
2023-04-11T20:47:49.682Z,20.40
2023-04-11T20:50:19.238Z,18.20
2023-04-11T20:52:51.312Z,21.70
2023-04-11T20:55:20.968Z,17.40
2023-04-11T20:57:48.786Z,20.20
2023-04-11T21:00:17.686Z,20.50
2023-04-11T21:02:50.261Z,23.30
2023-04-11T21:05:22.152Z,21.40
2023-04-11T21:07:50.269Z,22.30
2023-04-11T21:10:20.927Z,20.30
2023-04-11T21:12:51.865Z,21.60
2023-04-11T21:15:20.887Z,24.60
2023-04-11T21:17:48.824Z,23.00
2023-04-11T21:20:20.226Z,26.30
2023-04-11T21:22:53.217Z,25.80
2023-04-11T21:25:22.084Z,23.20
2023-04-11T21:27:49.975Z,20.30
2023-04-11T21:30:17.727Z,25.20
2023-04-11T21:32:45.497Z,18.60
2023-04-11T21:35:13.248Z,19.60
2023-04-11T21:37:41.058Z,23.50
2023-04-11T21:40:09.308Z,23.20
2023-04-11T21:42:36.930Z,26.20
2023-04-11T21:45:05.206Z,26.10
2023-04-11T21:47:32.817Z,29.10
2023-04-11T21:50:00.958Z,22.70
2023-04-11T21:52:28.579Z,27.90
2023-04-11T21:54:56.286Z,20.70
2023-04-11T21:57:23.965Z,21.00
2023-04-11T21:59:51.504Z,17.80
2023-04-11T22:02:19.306Z,12.50
2023-04-11T22:05:01.636Z,14.50
2023-04-11T22:07:59.137Z,12.00
2023-04-11T22:10:32.349Z,13.00
2023-04-11T22:13:02.835Z,15.40
2023-04-11T22:15:33.156Z,12.90
2023-04-11T22:18:02.478Z,12.30
2023-04-11T22:20:30.127Z,14.20
2023-04-11T22:22:57.772Z,11.00
2023-04-11T22:25:25.605Z,12.30
2023-04-11T22:27:54.835Z,12.40
2023-04-11T22:30:23.710Z,12.20
2023-04-11T22:32:54.261Z,12.80
2023-04-11T22:35:26.134Z,12.50
2023-04-11T22:37:59.090Z,11.30
2023-04-11T22:40:26.790Z,11.60
2023-04-11T22:42:55.169Z,12.20
2023-04-11T22:45:24.017Z,11.50
2023-04-11T22:47:54.477Z,12.50
2023-04-11T22:50:22.642Z,12.40
2023-04-11T22:52:50.282Z,11.10
2023-04-11T22:55:21.247Z,9.70
2023-04-11T22:57:49.002Z,10.30
2023-04-11T23:00:17.215Z,10.40
2023-04-11T23:02:45.427Z,11.80
2023-04-11T23:05:13.522Z,10.30
2023-04-11T23:07:41.127Z,10.00
2023-04-11T23:10:10.688Z,7.90
2023-04-11T23:12:38.260Z,10.60
2023-04-11T23:15:07.130Z,11.20
2023-04-11T23:17:35.305Z,9.30
2023-04-11T23:20:08.237Z,9.40
2023-04-11T23:22:35.861Z,8.80
2023-04-11T23:25:04.737Z,9.40
2023-04-11T23:27:33.136Z,7.90
2023-04-11T23:30:00.761Z,9.90
2023-04-11T23:32:28.471Z,9.40
2023-04-11T23:34:56.138Z,10.70
2023-04-11T23:37:25.290Z,10.50
2023-04-11T23:39:54.511Z,9.60
2023-04-11T23:42:22.624Z,8.50
2023-04-11T23:44:50.246Z,7.60
2023-04-11T23:47:17.868Z,9.30
2023-04-11T23:49:45.797Z,9.10
2023-04-11T23:52:14.158Z,9.10
2023-04-11T23:54:41.754Z,8.60
2023-04-11T23:57:09.588Z,11.20
2023-04-11T23:59:37.269Z,9.20
